createdAt,value
2023-01-25T00:01:18.506Z,81.62
2023-01-25T00:03:46.579Z,81.82
2023-01-25T00:06:14.709Z,81.56
2023-01-25T00:08:42.818Z,81.50
2023-01-25T00:11:10.843Z,81.71
2023-01-25T00:13:39.014Z,81.26
2023-01-25T00:16:09.110Z,80.91
2023-01-25T00:18:37.355Z,81.20
2023-01-25T00:21:13.706Z,81.11
2023-01-25T00:23:42.082Z,81.10
2023-01-25T00:26:10.216Z,81.13
2023-01-25T00:28:38.647Z,80.98
2023-01-25T00:31:09.441Z,80.92
2023-01-25T00:33:45.401Z,81.03
2023-01-25T00:36:32.607Z,80.89
2023-01-25T00:39:00.800Z,80.54
2023-01-25T00:41:29.083Z,80.84
2023-01-25T00:43:57.964Z,81.03
2023-01-25T00:46:27.440Z,80.47
2023-01-25T00:48:56.322Z,80.61
2023-01-25T00:51:25.528Z,80.39
2023-01-25T00:53:53.952Z,80.52
2023-01-25T00:56:22.094Z,80.57
2023-01-25T00:58:50.469Z,80.49
2023-01-25T01:01:20.394Z,80.28
2023-01-25T01:03:49.912Z,80.56
2023-01-25T01:06:18.067Z,80.52
2023-01-25T01:08:46.583Z,79.79
2023-01-25T01:11:14.720Z,80.22
2023-01-25T01:13:42.837Z,80.45
2023-01-25T01:16:13.715Z,80.65
2023-01-25T01:18:44.254Z,79.87
2023-01-25T01:21:15.269Z,80.40
2023-01-25T01:23:43.853Z,80.45
2023-01-25T01:26:14.485Z,80.67
2023-01-25T01:28:43.152Z,80.72
2023-01-25T01:31:14.534Z,80.69
2023-01-25T01:33:51.277Z,80.67
2023-01-25T01:36:22.973Z,81.03
2023-01-25T01:38:51.387Z,80.94
2023-01-25T01:41:20.146Z,80.93
2023-01-25T01:43:49.113Z,80.82
2023-01-25T01:46:23.396Z,80.27
2023-01-25T01:48:56.263Z,80.32
2023-01-25T01:51:37.491Z,79.83
2023-01-25T01:54:12.429Z,79.77
2023-01-25T01:56:46.785Z,79.48
2023-01-25T01:59:16.366Z,79.85
2023-01-25T02:01:45.828Z,79.90
2023-01-25T02:04:17.568Z,79.79
2023-01-25T02:06:50.178Z,79.31
2023-01-25T02:09:22.604Z,79.50
2023-01-25T02:11:52.185Z,79.37
2023-01-25T02:14:21.975Z,79.58
2023-01-25T02:16:50.164Z,79.30
2023-01-25T02:19:28.379Z,79.57
2023-01-25T02:22:00.278Z,79.66
2023-01-25T02:24:32.171Z,79.27
2023-01-25T02:27:01.862Z,79.72
2023-01-25T02:29:31.264Z,79.68
2023-01-25T02:32:05.873Z,79.90
2023-01-25T02:34:35.846Z,79.74
2023-01-25T02:37:04.817Z,79.81
2023-01-25T02:39:33.102Z,79.91
2023-01-25T02:42:02.602Z,79.77
2023-01-25T02:44:34.574Z,79.93
2023-01-25T02:47:05.205Z,79.73
2023-01-25T02:49:36.589Z,79.88
2023-01-25T02:52:05.749Z,79.92
2023-01-25T02:54:33.890Z,80.14
2023-01-25T02:57:04.649Z,80.39
2023-01-25T02:59:41.674Z,80.40
2023-01-25T03:02:10.079Z,80.49
2023-01-25T03:04:38.507Z,81.15
2023-01-25T03:07:06.732Z,80.73
2023-01-25T03:09:35.071Z,81.01
2023-01-25T03:12:04.975Z,80.93
2023-01-25T03:14:34.970Z,80.77
2023-01-25T03:17:03.239Z,80.82
2023-01-25T03:19:31.923Z,80.89
2023-01-25T03:22:00.186Z,80.94
2023-01-25T03:24:29.255Z,80.79
2023-01-25T03:27:14.150Z,80.20
2023-01-25T03:29:50.480Z,80.39
2023-01-25T03:32:23.244Z,80.34
2023-01-25T03:34:51.586Z,80.41
2023-01-25T03:37:20.902Z,80.59
2023-01-25T03:39:50.026Z,80.72
2023-01-25T03:42:21.714Z,80.86
2023-01-25T03:44:56.151Z,80.67
2023-01-25T03:47:24.415Z,80.91
2023-01-25T03:49:53.161Z,80.76
2023-01-25T03:52:21.452Z,80.51
2023-01-25T03:54:49.548Z,80.50
2023-01-25T03:57:17.817Z,80.53
2023-01-25T04:00:05.577Z,80.63
2023-01-25T04:02:43.443Z,80.55
2023-01-25T04:05:15.526Z,80.35
2023-01-25T04:07:43.725Z,80.47
2023-01-25T04:10:12.703Z,80.21
2023-01-25T04:12:44.969Z,80.31
2023-01-25T04:15:14.932Z,80.11
2023-01-25T04:17:43.003Z,80.25
2023-01-25T04:20:22.739Z,79.91
2023-01-25T04:22:51.167Z,80.18
2023-01-25T04:25:21.328Z,80.24
2023-01-25T04:27:53.905Z,80.24
2023-01-25T04:30:23.505Z,80.19
2023-01-25T04:32:51.904Z,79.66
2023-01-25T04:35:25.181Z,80.15
2023-01-25T04:37:55.303Z,79.80
2023-01-25T04:40:25.734Z,80.31
2023-01-25T04:42:53.873Z,79.68
2023-01-25T04:45:24.032Z,80.25
2023-01-25T04:47:57.818Z,80.02
2023-01-25T04:50:26.146Z,80.18
2023-01-25T04:52:55.414Z,80.14
2023-01-25T04:55:25.007Z,80.41
2023-01-25T04:57:55.372Z,80.59
2023-01-25T05:00:25.498Z,80.84
2023-01-25T05:02:53.686Z,80.95
2023-01-25T05:05:21.912Z,80.55
2023-01-25T05:07:50.404Z,80.72
2023-01-25T05:10:18.730Z,80.97
2023-01-25T05:13:15.852Z,80.91
2023-01-25T05:15:46.578Z,80.81
2023-01-25T05:18:14.824Z,81.07
2023-01-25T05:20:42.922Z,81.67
2023-01-25T05:23:12.067Z,81.27
2023-01-25T05:25:57.694Z,81.16
2023-01-25T05:28:31.234Z,81.20
2023-01-25T05:31:15.603Z,81.38
2023-01-25T05:33:44.192Z,81.42
2023-01-25T05:36:12.392Z,81.44
2023-01-25T05:38:40.506Z,81.53
2023-01-25T05:41:11.087Z,81.44
2023-01-25T05:43:39.373Z,81.52
2023-01-25T05:46:08.701Z,81.73
2023-01-25T05:48:39.590Z,81.33
2023-01-25T05:51:08.104Z,81.14
2023-01-25T05:53:36.189Z,81.17
2023-01-25T05:56:08.509Z,81.48
2023-01-25T05:58:36.666Z,81.02
2023-01-25T06:01:06.157Z,81.00
2023-01-25T06:03:45.023Z,80.88
2023-01-25T06:06:13.879Z,81.09
2023-01-25T06:08:43.296Z,81.09
2023-01-25T06:11:13.196Z,80.86
2023-01-25T06:13:45.593Z,80.86
2023-01-25T06:16:14.073Z,81.08
2023-01-25T06:18:42.835Z,80.96
2023-01-25T06:21:37.154Z,80.40
2023-01-25T06:24:05.722Z,80.28
2023-01-25T06:26:33.896Z,80.35
2023-01-25T06:29:02.074Z,80.24
2023-01-25T06:31:30.358Z,80.40
2023-01-25T06:34:01.141Z,80.42
2023-01-25T06:36:29.721Z,80.17
2023-01-25T06:38:59.399Z,80.45
2023-01-25T06:41:27.857Z,80.24
2023-01-25T06:43:56.029Z,80.09
2023-01-25T06:46:24.239Z,80.09
2023-01-25T06:48:52.632Z,80.27
2023-01-25T06:51:20.789Z,80.09
2023-01-25T06:53:48.899Z,80.17
2023-01-25T06:56:20.830Z,80.48
2023-01-25T06:58:49.600Z,80.78
2023-01-25T07:01:20.327Z,81.02
2023-01-25T07:03:52.795Z,81.20
2023-01-25T07:06:21.295Z,81.18
2023-01-25T07:08:49.611Z,80.96
2023-01-25T07:11:19.585Z,80.86
2023-01-25T07:13:48.899Z,80.85
2023-01-25T07:16:19.398Z,80.48
2023-01-25T07:18:47.896Z,80.40
2023-01-25T07:21:18.429Z,80.23
2023-01-25T07:23:47.013Z,79.94
2023-01-25T07:26:19.538Z,80.02
2023-01-25T07:28:48.827Z,80.36
2023-01-25T07:31:18.297Z,80.22
2023-01-25T07:33:50.190Z,79.78
2023-01-25T07:36:18.540Z,79.89
2023-01-25T07:38:46.723Z,79.48
2023-01-25T07:41:16.446Z,79.28
2023-01-25T07:43:45.993Z,78.99
2023-01-25T07:46:19.636Z,79.04
2023-01-25T07:48:49.637Z,78.64
2023-01-25T07:51:26.681Z,78.95
2023-01-25T07:53:56.579Z,79.27
2023-01-25T07:56:26.537Z,79.23
2023-01-25T07:58:56.770Z,79.81
2023-01-25T08:01:26.474Z,79.46
2023-01-25T08:03:56.657Z,79.81
2023-01-25T08:06:27.676Z,79.52
2023-01-25T08:08:56.566Z,80.10
2023-01-25T08:11:26.239Z,80.32
2023-01-25T08:13:55.923Z,80.86
2023-01-25T08:16:26.082Z,81.00
2023-01-25T08:18:56.415Z,80.93
2023-01-25T08:21:29.138Z,81.64
2023-01-25T08:23:58.821Z,81.85
2023-01-25T08:26:29.749Z,82.68
2023-01-25T08:28:59.642Z,82.72
2023-01-25T08:31:30.077Z,82.02
2023-01-25T08:33:58.764Z,82.48
2023-01-25T08:36:28.218Z,83.76
2023-01-25T08:38:58.184Z,83.23
2023-01-25T08:41:27.203Z,81.98
2023-01-25T08:43:56.887Z,80.86
2023-01-25T08:46:31.289Z,80.37
2023-01-25T08:49:02.008Z,80.07
2023-01-25T08:51:31.732Z,80.03
2023-01-25T08:54:03.963Z,80.22
2023-01-25T08:56:32.295Z,79.76
2023-01-25T08:59:00.360Z,80.01
2023-01-25T09:01:29.840Z,79.72
2023-01-25T09:03:57.967Z,79.29
2023-01-25T09:06:26.073Z,78.92
2023-01-25T09:08:54.230Z,79.19
2023-01-25T09:11:24.392Z,78.65
2023-01-25T09:13:52.547Z,78.31
2023-01-25T09:16:28.472Z,77.64
2023-01-25T09:18:59.747Z,76.93
2023-01-25T09:21:28.161Z,77.59
2023-01-25T09:24:05.893Z,76.44
2023-01-25T09:26:36.237Z,76.43
2023-01-25T09:29:05.089Z,76.49
2023-01-25T09:31:33.782Z,76.64
2023-01-25T09:34:17.292Z,77.08
2023-01-25T09:36:45.638Z,77.03
2023-01-25T09:39:14.193Z,76.92
2023-01-25T09:42:14.908Z,77.16
2023-01-25T09:45:01.439Z,76.85
2023-01-25T09:47:37.217Z,77.30
2023-01-25T09:50:59.568Z,77.04
2023-01-25T09:53:43.601Z,76.96
2023-01-25T09:56:31.173Z,76.13
2023-01-25T09:59:04.541Z,75.50
2023-01-25T10:01:43.095Z,76.23
2023-01-25T10:04:17.925Z,75.26
2023-01-25T10:07:00.290Z,75.33
2023-01-25T10:09:38.879Z,75.54
2023-01-25T10:12:16.394Z,74.91
2023-01-25T10:14:44.608Z,75.36
2023-01-25T10:17:20.011Z,75.60
2023-01-25T10:20:04.510Z,74.16
2023-01-25T10:22:42.370Z,74.70
2023-01-25T10:25:24.569Z,74.20
2023-01-25T10:28:05.270Z,74.07
2023-01-25T10:30:40.053Z,74.42
2023-01-25T10:33:14.778Z,73.49
2023-01-25T10:35:47.536Z,73.50
2023-01-25T10:38:25.292Z,73.52
2023-01-25T10:40:58.437Z,73.26
2023-01-25T10:43:26.915Z,73.04
2023-01-25T10:45:55.096Z,73.14
2023-01-25T10:48:26.449Z,73.27
2023-01-25T10:50:57.686Z,73.58
2023-01-25T10:53:33.783Z,72.73
2023-01-25T10:56:22.869Z,72.50
2023-01-25T10:58:54.459Z,72.87
2023-01-25T11:01:29.592Z,72.16
2023-01-25T11:03:58.205Z,72.09
2023-01-25T11:06:37.425Z,72.47
2023-01-25T11:09:33.379Z,72.61
2023-01-25T11:12:03.086Z,72.15
2023-01-25T11:14:33.140Z,72.30
2023-01-25T11:17:03.872Z,72.28
2023-01-25T11:19:36.799Z,72.88
2023-01-25T11:22:07.164Z,72.74
2023-01-25T11:24:37.879Z,72.25
2023-01-25T11:27:21.807Z,71.45
2023-01-25T11:30:10.632Z,70.83
2023-01-25T11:32:40.998Z,71.94
2023-01-25T11:35:15.002Z,72.38
2023-01-25T11:38:08.049Z,72.10
2023-01-25T11:40:46.369Z,71.80
2023-01-25T11:43:30.298Z,72.35
2023-01-25T11:46:21.430Z,72.66
2023-01-25T11:49:23.250Z,72.01
2023-01-25T11:52:00.736Z,71.50
2023-01-25T11:54:42.862Z,71.79
2023-01-25T11:57:30.547Z,71.50
2023-01-25T12:00:15.440Z,71.39
2023-01-25T12:03:06.199Z,70.35
2023-01-25T12:05:44.515Z,70.95
2023-01-25T12:08:30.956Z,70.62
2023-01-25T12:11:08.033Z,70.55
2023-01-25T12:13:50.635Z,70.07
2023-01-25T12:16:42.013Z,70.48
2023-01-25T12:19:41.754Z,68.77
2023-01-25T12:22:37.566Z,69.07
2023-01-25T12:25:21.677Z,69.59
2023-01-25T12:28:07.835Z,69.72
2023-01-25T12:30:47.116Z,69.42
2023-01-25T12:33:20.853Z,68.96
2023-01-25T12:35:55.895Z,69.40
2023-01-25T12:38:29.197Z,68.51
2023-01-25T12:41:03.915Z,68.31
2023-01-25T12:43:39.419Z,67.43
2023-01-25T12:46:15.987Z,67.37
2023-01-25T12:48:48.738Z,66.38
2023-01-25T12:51:18.959Z,66.62
2023-01-25T12:53:48.344Z,67.29
2023-01-25T12:56:30.207Z,65.74
2023-01-25T12:59:04.671Z,66.14
2023-01-25T13:01:40.289Z,65.99
2023-01-25T13:04:24.389Z,66.59
2023-01-25T13:06:58.493Z,66.60
2023-01-25T13:09:35.928Z,66.78
2023-01-25T13:12:05.488Z,66.98
2023-01-25T13:14:38.310Z,66.06
2023-01-25T13:17:23.841Z,66.26
2023-01-25T13:19:53.556Z,65.92
2023-01-25T13:22:58.991Z,66.38
2023-01-25T13:25:28.574Z,66.91
2023-01-25T13:28:38.954Z,66.66
2023-01-25T13:31:07.213Z,67.26
2023-01-25T13:33:37.896Z,66.98
2023-01-25T13:36:46.652Z,66.85
2023-01-25T13:39:44.699Z,67.12
2023-01-25T13:42:23.625Z,66.80
2023-01-25T13:44:54.547Z,67.05
2023-01-25T13:47:25.872Z,66.85
2023-01-25T13:50:01.442Z,67.30
2023-01-25T13:52:32.500Z,66.74
2023-01-25T13:55:01.158Z,67.22
2023-01-25T13:57:30.885Z,67.22
2023-01-25T14:00:10.693Z,67.48
2023-01-25T14:02:46.330Z,67.07
2023-01-25T14:05:25.763Z,67.47
2023-01-25T14:07:58.304Z,67.54
2023-01-25T14:10:28.986Z,67.27
2023-01-25T14:13:01.261Z,66.57
2023-01-25T14:15:33.956Z,66.43
2023-01-25T14:18:10.930Z,66.26
2023-01-25T14:20:40.837Z,66.27
2023-01-25T14:23:22.338Z,67.16
2023-01-25T14:25:50.828Z,67.03
2023-01-25T14:28:19.809Z,66.78
2023-01-25T14:30:52.900Z,66.99
2023-01-25T14:33:24.256Z,67.68
2023-01-25T14:35:58.540Z,68.02
2023-01-25T14:38:31.587Z,68.23
2023-01-25T14:41:04.316Z,67.88
2023-01-25T14:43:33.380Z,68.37
2023-01-25T14:46:01.509Z,68.42
2023-01-25T14:48:41.540Z,68.67
2023-01-25T14:51:21.483Z,68.21
2023-01-25T14:53:56.710Z,68.52
2023-01-25T14:56:33.326Z,68.52
2023-01-25T14:59:01.878Z,68.70
2023-01-25T15:01:34.082Z,69.79
2023-01-25T15:04:02.395Z,69.27
2023-01-25T15:06:31.834Z,69.35
2023-01-25T15:09:00.006Z,69.22
2023-01-25T15:11:38.861Z,69.14
2023-01-25T15:14:17.671Z,69.56
2023-01-25T15:16:45.992Z,69.08
2023-01-25T15:19:29.451Z,69.56
2023-01-25T15:22:00.591Z,69.54
2023-01-25T15:24:29.124Z,69.35
2023-01-25T15:26:58.391Z,70.05
2023-01-25T15:29:27.796Z,69.49
2023-01-25T15:31:57.251Z,69.66
2023-01-25T15:34:29.562Z,69.34
2023-01-25T15:36:59.101Z,69.03
2023-01-25T15:39:28.961Z,69.71
2023-01-25T15:41:57.189Z,69.94
2023-01-25T15:44:25.265Z,69.57
2023-01-25T15:46:53.703Z,69.72
2023-01-25T15:49:26.579Z,69.50
2023-01-25T15:51:54.986Z,69.32
2023-01-25T15:54:25.209Z,69.49
2023-01-25T15:56:57.223Z,69.67
2023-01-25T15:59:27.137Z,69.10
2023-01-25T16:01:55.378Z,69.41
2023-01-25T16:04:25.284Z,69.69
2023-01-25T16:06:55.097Z,70.47
2023-01-25T16:09:26.874Z,69.92
2023-01-25T16:11:57.012Z,69.87
2023-01-25T16:14:29.252Z,69.30
2023-01-25T16:17:01.522Z,69.23
2023-01-25T16:19:30.093Z,69.76
2023-01-25T16:21:58.644Z,69.36
2023-01-25T16:24:28.490Z,69.45
2023-01-25T16:26:58.656Z,69.67
2023-01-25T16:29:27.523Z,69.79
2023-01-25T16:31:56.105Z,70.02
2023-01-25T16:34:24.380Z,69.97
2023-01-25T16:36:53.237Z,70.36
2023-01-25T16:39:23.745Z,70.16
2023-01-25T16:41:53.689Z,71.05
2023-01-25T16:44:21.884Z,70.85
2023-01-25T16:46:50.513Z,70.07
2023-01-25T16:49:20.489Z,70.18
2023-01-25T16:51:49.206Z,70.20
2023-01-25T16:54:17.597Z,70.17
2023-01-25T16:56:45.725Z,70.42
2023-01-25T16:59:15.193Z,70.29
2023-01-25T17:01:43.369Z,70.55
2023-01-25T17:04:11.874Z,70.39
2023-01-25T17:06:43.230Z,70.38
2023-01-25T17:09:22.991Z,70.44
2023-01-25T17:11:52.136Z,70.33
2023-01-25T17:14:22.175Z,71.13
2023-01-25T17:16:53.730Z,71.04
2023-01-25T17:19:22.250Z,70.89
2023-01-25T17:21:50.481Z,71.39
2023-01-25T17:24:21.035Z,71.58
2023-01-25T17:26:49.329Z,71.68
2023-01-25T17:29:17.531Z,71.77
2023-01-25T17:31:47.189Z,72.14
2023-01-25T17:34:19.358Z,71.87
2023-01-25T17:36:47.915Z,72.07
2023-01-25T17:39:19.445Z,71.65
2023-01-25T17:41:49.234Z,70.95
2023-01-25T17:44:21.459Z,70.34
2023-01-25T17:46:51.801Z,69.98
2023-01-25T17:49:22.545Z,69.57
2023-01-25T17:51:50.798Z,69.08
2023-01-25T17:54:18.942Z,68.94
2023-01-25T17:56:47.080Z,69.30
2023-01-25T17:59:15.143Z,69.53
2023-01-25T18:01:43.788Z,69.16
2023-01-25T18:04:17.542Z,68.87
2023-01-25T18:06:45.767Z,69.41
2023-01-25T18:09:13.991Z,69.30
2023-01-25T18:11:42.299Z,69.78
2023-01-25T18:14:15.260Z,69.60
2023-01-25T18:16:44.765Z,70.52
2023-01-25T18:19:14.516Z,70.53
2023-01-25T18:21:43.500Z,70.50
2023-01-25T18:24:27.309Z,69.92
2023-01-25T18:27:00.234Z,69.79
2023-01-25T18:29:45.516Z,69.69
2023-01-25T18:32:13.795Z,69.84
2023-01-25T18:34:43.321Z,70.17
2023-01-25T18:37:20.638Z,70.27
2023-01-25T18:39:50.032Z,70.16
2023-01-25T18:42:18.630Z,70.07
2023-01-25T18:44:48.553Z,69.58
2023-01-25T18:47:18.956Z,69.20
2023-01-25T18:49:49.836Z,69.14
2023-01-25T18:52:18.751Z,69.62
2023-01-25T18:54:47.128Z,69.63
2023-01-25T18:57:15.538Z,69.42
2023-01-25T18:59:44.527Z,69.70
2023-01-25T19:02:13.814Z,70.61
2023-01-25T19:04:41.990Z,70.76
2023-01-25T19:07:11.484Z,70.23
2023-01-25T19:09:39.653Z,70.04
2023-01-25T19:12:08.303Z,70.28
2023-01-25T19:14:36.613Z,71.01
2023-01-25T19:17:04.741Z,71.01
2023-01-25T19:19:34.069Z,71.69
2023-01-25T19:22:02.478Z,72.10
2023-01-25T19:24:32.039Z,71.75
2023-01-25T19:27:00.219Z,71.78
2023-01-25T19:29:28.486Z,71.49
2023-01-25T19:31:56.700Z,71.41
2023-01-25T19:34:24.986Z,71.27
2023-01-25T19:36:54.033Z,71.80
2023-01-25T19:39:22.278Z,71.38
2023-01-25T19:41:53.241Z,70.32
2023-01-25T19:44:21.982Z,69.31
2023-01-25T19:46:50.166Z,69.10
2023-01-25T19:49:18.565Z,69.19
2023-01-25T19:51:52.971Z,68.94
2023-01-25T19:54:21.924Z,69.11
2023-01-25T19:56:50.813Z,69.58
2023-01-25T19:59:22.191Z,70.10
2023-01-25T20:01:50.580Z,69.81
2023-01-25T20:04:20.828Z,70.12
2023-01-25T20:06:49.182Z,70.68
2023-01-25T20:09:19.832Z,70.73
2023-01-25T20:11:48.414Z,70.28
2023-01-25T20:14:17.053Z,70.05
2023-01-25T20:16:47.117Z,70.14
2023-01-25T20:19:15.341Z,70.72
2023-01-25T20:21:43.581Z,70.92
2023-01-25T20:24:11.857Z,70.76
2023-01-25T20:26:43.014Z,70.74
2023-01-25T20:29:12.833Z,71.27
2023-01-25T20:31:42.591Z,70.96
2023-01-25T20:34:14.961Z,70.75
2023-01-25T20:36:43.777Z,70.74
2023-01-25T20:39:14.241Z,70.93
2023-01-25T20:41:42.820Z,70.62
2023-01-25T20:44:13.838Z,70.78
2023-01-25T20:46:43.259Z,71.00
2023-01-25T20:49:16.714Z,70.91
2023-01-25T20:51:45.591Z,71.02
2023-01-25T20:54:14.333Z,71.01
2023-01-25T20:56:43.166Z,71.36
2023-01-25T20:59:11.594Z,71.66
2023-01-25T21:01:40.138Z,71.64
2023-01-25T21:04:10.977Z,71.58
2023-01-25T21:06:40.555Z,71.79
2023-01-25T21:09:08.637Z,71.53
2023-01-25T21:11:37.031Z,72.03
2023-01-25T21:14:06.120Z,72.90
2023-01-25T21:16:34.277Z,72.44
2023-01-25T21:19:06.550Z,71.98
2023-01-25T21:21:35.786Z,72.46
2023-01-25T21:24:06.020Z,72.08
2023-01-25T21:26:35.599Z,72.52
2023-01-25T21:29:04.492Z,72.69
2023-01-25T21:31:34.328Z,72.23
2023-01-25T21:34:03.778Z,72.59
2023-01-25T21:36:32.034Z,73.97
2023-01-25T21:39:00.163Z,73.69
2023-01-25T21:41:33.523Z,73.08
2023-01-25T21:44:20.305Z,72.69
2023-01-25T21:47:16.435Z,72.23
2023-01-25T21:49:54.662Z,73.27
2023-01-25T21:52:22.832Z,72.67
2023-01-25T21:54:51.055Z,72.20
2023-01-25T21:57:29.599Z,72.66
2023-01-25T22:00:04.440Z,72.71
2023-01-25T22:02:32.933Z,72.47
2023-01-25T22:05:01.050Z,72.28
2023-01-25T22:07:29.226Z,72.84
2023-01-25T22:09:57.296Z,72.07
2023-01-25T22:12:26.894Z,72.59
2023-01-25T22:14:54.982Z,71.94
2023-01-25T22:17:25.682Z,71.94
2023-01-25T22:19:53.830Z,71.90
2023-01-25T22:22:21.884Z,71.89
2023-01-25T22:24:50.015Z,71.65
2023-01-25T22:27:42.386Z,71.56
2023-01-25T22:30:12.809Z,71.25
2023-01-25T22:32:41.203Z,71.18
2023-01-25T22:35:09.848Z,71.41
2023-01-25T22:37:38.907Z,71.45
2023-01-25T22:40:09.023Z,71.27
2023-01-25T22:42:38.695Z,71.62
2023-01-25T22:45:08.339Z,72.03
2023-01-25T22:47:36.422Z,71.79
2023-01-25T22:50:04.787Z,71.92
2023-01-25T22:52:32.906Z,71.36
2023-01-25T22:55:00.969Z,71.51
2023-01-25T22:57:29.075Z,71.45
2023-01-25T22:59:58.615Z,71.13
2023-01-25T23:02:26.733Z,71.44
2023-01-25T23:04:54.828Z,71.28
2023-01-25T23:07:22.979Z,71.48
2023-01-25T23:09:51.795Z,71.63
2023-01-25T23:12:20.672Z,71.96
2023-01-25T23:14:51.688Z,71.49
2023-01-25T23:17:40.220Z,71.02
2023-01-25T23:20:10.781Z,70.79
2023-01-25T23:22:39.235Z,70.68
2023-01-25T23:25:09.024Z,70.85
2023-01-25T23:27:37.510Z,71.11
2023-01-25T23:30:07.377Z,71.00
2023-01-25T23:32:36.961Z,70.79
2023-01-25T23:35:05.703Z,70.69
2023-01-25T23:37:33.869Z,71.18
2023-01-25T23:40:02.117Z,71.12
2023-01-25T23:42:30.350Z,71.40
2023-01-25T23:44:58.399Z,71.63
2023-01-25T23:47:26.515Z,71.61
2023-01-25T23:49:56.041Z,71.37
2023-01-25T23:52:24.123Z,71.14
2023-01-25T23:54:52.206Z,71.54
2023-01-25T23:57:21.805Z,71.40
2023-01-25T23:59:49.855Z,71.63
